createdAt,value
2023-04-25T00:03:42.872Z,21.07
2023-04-25T00:06:30.373Z,21.06
2023-04-25T00:08:49.237Z,21.03
2023-04-25T00:09:50.195Z,21.03
2023-04-25T00:10:50.126Z,21.05
2023-04-25T00:11:49.113Z,21.07
2023-04-25T00:12:50.135Z,21.06
2023-04-25T00:13:49.301Z,21.07
2023-04-25T00:14:49.111Z,21.06
2023-04-25T00:15:49.128Z,21.06
2023-04-25T00:16:50.143Z,21.07
2023-04-25T00:17:49.125Z,21.10
2023-04-25T00:28:17.369Z,21.03
2023-04-25T00:31:20.792Z,21.02
2023-04-25T00:32:27.751Z,20.96
2023-04-25T00:35:37.367Z,20.97
2023-04-25T00:36:41.372Z,20.96
2023-04-25T00:37:47.861Z,21.03
2023-04-25T00:38:32.757Z,20.95
2023-04-25T00:39:33.703Z,21.00
2023-04-25T00:40:32.668Z,20.99
2023-04-25T00:41:32.687Z,21.06
2023-04-25T00:42:33.677Z,20.99
2023-04-25T00:43:33.689Z,20.99
2023-04-25T00:44:32.664Z,20.99
2023-04-25T00:45:33.682Z,21.02
2023-04-25T00:46:33.643Z,21.00
2023-04-25T00:47:33.640Z,21.06
2023-04-25T00:48:32.621Z,21.02
2023-04-25T00:49:32.658Z,21.06
2023-04-25T00:53:33.949Z,21.00
2023-04-25T00:55:52.548Z,20.99
2023-04-25T01:00:28.267Z,21.00
2023-04-25T01:04:08.083Z,20.97
2023-04-25T01:05:07.878Z,20.97
2023-04-25T01:06:07.880Z,20.96
2023-04-25T01:07:08.829Z,20.97
2023-04-25T01:08:08.839Z,20.93
2023-04-25T01:09:08.860Z,21.00
2023-04-25T01:10:08.803Z,20.99
2023-04-25T01:11:08.831Z,20.96
2023-04-25T01:12:08.796Z,21.00
2023-04-25T01:27:04.573Z,20.92
2023-04-25T01:28:08.460Z,20.95
2023-04-25T01:32:24.188Z,20.93
2023-04-25T01:37:28.282Z,20.93
2023-04-25T01:38:48.440Z,20.90
2023-04-25T01:43:21.784Z,20.88
2023-04-25T01:46:21.910Z,20.93
2023-04-25T01:50:53.959Z,20.90
2023-04-25T01:53:21.775Z,20.86
2023-04-25T01:55:55.501Z,20.82
2023-04-25T01:56:56.406Z,20.86
2023-04-25T01:57:56.399Z,20.83
2023-04-25T01:58:56.386Z,20.86
2023-04-25T01:59:56.391Z,20.89
2023-04-25T02:00:56.362Z,20.86
2023-04-25T02:01:55.465Z,20.86
2023-04-25T02:02:56.428Z,20.89
2023-04-25T02:03:55.853Z,20.89
2023-04-25T02:04:56.353Z,20.92
2023-04-25T02:05:56.309Z,20.93
2023-04-25T02:09:51.412Z,20.86
2023-04-25T02:24:08.289Z,20.83
2023-04-25T02:24:59.976Z,20.89
2023-04-25T02:25:59.960Z,20.86
2023-04-25T02:26:58.957Z,20.89
2023-04-25T02:27:59.944Z,20.83
2023-04-25T02:28:59.940Z,20.88
2023-04-25T02:29:59.936Z,20.82
2023-04-25T02:30:59.996Z,20.86
2023-04-25T02:31:58.913Z,20.86
2023-04-25T02:32:59.938Z,20.83
2023-04-25T02:33:58.911Z,20.85
2023-04-25T02:34:59.917Z,20.86
2023-04-25T02:35:58.881Z,20.89
2023-04-25T02:36:59.878Z,20.82
2023-04-25T02:37:59.863Z,20.82
2023-04-25T02:38:59.897Z,20.88
2023-04-25T02:39:58.887Z,20.86
2023-04-25T02:40:58.867Z,20.83
2023-04-25T02:41:58.845Z,20.88
2023-04-25T02:42:59.843Z,20.83
2023-04-25T02:43:59.816Z,20.92
2023-04-25T02:44:59.860Z,20.85
2023-04-25T02:45:59.813Z,20.83
2023-04-25T02:46:59.840Z,20.85
2023-04-25T02:47:59.869Z,20.83
2023-04-25T02:48:59.798Z,20.82
2023-04-25T02:49:59.788Z,20.82
2023-04-25T02:50:59.807Z,20.85
2023-04-25T02:51:59.766Z,20.85
2023-04-25T02:52:59.766Z,20.82
2023-04-25T02:53:59.766Z,20.81
2023-04-25T02:54:58.777Z,20.85
2023-04-25T02:55:59.755Z,20.88
2023-04-25T02:56:59.737Z,20.86
2023-04-25T02:57:58.734Z,20.85
2023-04-25T02:58:59.715Z,20.88
2023-04-25T02:59:59.712Z,20.82
2023-04-25T03:00:59.729Z,20.88
2023-04-25T03:06:00.800Z,20.81
2023-04-25T03:07:01.846Z,20.78
2023-04-25T03:08:01.737Z,20.86
2023-04-25T03:09:01.755Z,20.83
2023-04-25T03:10:00.762Z,20.82
2023-04-25T03:11:01.706Z,20.78
2023-04-25T03:12:01.674Z,20.82
2023-04-25T03:13:00.665Z,20.81
2023-04-25T03:14:01.685Z,20.81
2023-04-25T03:15:01.665Z,20.81
2023-04-25T03:16:01.653Z,20.86
2023-04-25T03:17:01.718Z,20.83
2023-04-25T03:18:01.700Z,20.82
2023-04-25T03:23:14.853Z,20.82
2023-04-25T03:26:40.771Z,20.79
2023-04-25T04:03:28.236Z,21.83
2023-04-25T04:04:28.247Z,21.83
2023-04-25T04:05:29.073Z,21.85
2023-04-25T04:06:27.963Z,21.86
2023-04-25T04:07:28.970Z,21.88
2023-04-25T04:08:28.960Z,21.89
2023-04-25T04:09:28.969Z,21.92
2023-04-25T04:10:28.930Z,21.92
2023-04-25T04:11:28.949Z,21.90
2023-04-25T04:12:27.932Z,21.93
2023-04-25T04:13:28.907Z,21.95
2023-04-25T04:16:38.797Z,21.93
2023-04-25T04:17:39.720Z,21.96
2023-04-25T04:19:58.429Z,21.92
2023-04-25T04:20:58.428Z,21.95
2023-04-25T04:21:59.390Z,21.96
2023-04-25T04:22:59.374Z,22.00
2023-04-25T04:23:59.521Z,22.00
2023-04-25T04:24:58.348Z,22.00
2023-04-25T04:27:32.334Z,21.97
2023-04-25T04:40:17.708Z,22.06
2023-04-25T05:03:36.373Z,22.23
2023-04-25T05:04:37.425Z,22.23
2023-04-25T05:05:36.268Z,22.20
2023-04-25T05:06:37.273Z,22.23
2023-04-25T05:07:37.247Z,22.25
2023-04-25T05:08:37.242Z,22.21
2023-04-25T05:09:37.235Z,22.24
2023-04-25T05:10:37.220Z,22.25
2023-04-25T05:11:36.217Z,22.24
2023-04-25T05:12:37.170Z,22.27
2023-04-25T05:13:37.205Z,22.28
2023-04-25T05:14:36.211Z,22.28
2023-04-25T05:15:36.185Z,22.28
2023-04-25T05:16:37.286Z,22.27
2023-04-25T05:17:37.184Z,22.21
2023-04-25T05:18:37.175Z,22.18
2023-04-25T05:19:37.167Z,22.21
2023-04-25T05:20:37.162Z,22.27
2023-04-25T05:21:36.183Z,22.27
2023-04-25T05:22:37.222Z,22.25
2023-04-25T05:23:37.286Z,22.27
2023-04-25T05:24:37.339Z,22.32
2023-04-25T05:25:36.372Z,22.37
2023-04-25T05:26:37.403Z,22.35
2023-04-25T05:27:37.434Z,22.35
2023-04-25T05:28:37.507Z,22.35
2023-04-25T05:29:37.537Z,22.42
2023-04-25T05:30:37.592Z,22.37
2023-04-25T05:31:36.669Z,22.44
2023-04-25T05:32:37.719Z,22.51
2023-04-25T05:33:36.745Z,22.54
2023-04-25T05:34:37.807Z,22.56
2023-04-25T05:35:36.863Z,22.63
2023-04-25T05:36:36.913Z,22.59
2023-04-25T05:37:36.957Z,22.52
2023-04-25T05:38:37.998Z,22.66
2023-04-25T05:39:38.007Z,22.72
2023-04-25T05:40:38.037Z,22.70
2023-04-25T05:41:37.065Z,22.79
2023-04-25T05:42:37.094Z,22.73
2023-04-25T05:43:38.097Z,22.77
2023-04-25T05:44:38.132Z,22.93
2023-04-25T05:45:37.164Z,22.96
2023-04-25T05:46:38.174Z,23.01
2023-04-25T05:47:37.174Z,22.99
2023-04-25T05:48:38.180Z,22.99
2023-04-25T05:49:38.205Z,22.96
2023-04-25T05:50:38.213Z,22.87
2023-04-25T05:51:38.271Z,22.85
2023-04-25T05:52:38.236Z,22.89
2023-04-25T05:53:38.272Z,22.89
2023-04-25T05:54:37.384Z,22.66
2023-04-25T05:55:38.341Z,22.90
2023-04-25T05:56:38.398Z,22.82
2023-04-25T05:57:38.421Z,22.83
2023-04-25T05:58:38.466Z,22.89
2023-04-25T05:59:38.529Z,22.93
2023-04-25T06:00:38.551Z,22.89
2023-04-25T06:01:37.587Z,23.08
2023-04-25T06:02:38.715Z,23.18
2023-04-25T06:03:38.933Z,23.26
2023-04-25T06:04:37.907Z,23.38
2023-04-25T06:05:38.746Z,23.35
2023-04-25T06:06:38.731Z,23.44
2023-04-25T06:07:37.778Z,23.46
2023-04-25T06:08:38.823Z,23.55
2023-04-25T06:09:38.846Z,23.53
2023-04-25T06:10:38.911Z,23.53
2023-04-25T06:11:37.930Z,23.50
2023-04-25T06:12:38.967Z,23.59
2023-04-25T06:13:37.980Z,23.58
2023-04-25T06:14:39.007Z,23.56
2023-04-25T06:15:38.083Z,23.56
2023-04-25T06:16:39.078Z,23.62
2023-04-25T06:17:39.103Z,23.60
2023-04-25T06:18:38.098Z,23.70
2023-04-25T06:19:38.116Z,23.76
2023-04-25T06:20:39.150Z,23.63
2023-04-25T06:21:38.191Z,23.65
2023-04-25T06:22:39.177Z,23.67
2023-04-25T06:23:39.198Z,23.70
2023-04-25T06:24:39.211Z,23.73
2023-04-25T06:25:39.232Z,23.67
2023-04-25T06:26:39.271Z,23.70
2023-04-25T06:27:38.296Z,23.72
2023-04-25T06:28:38.290Z,23.83
2023-04-25T06:29:39.325Z,23.76
2023-04-25T06:30:39.377Z,23.76
2023-04-25T06:31:39.468Z,23.85
2023-04-25T06:32:39.567Z,23.85
2023-04-25T06:33:39.490Z,23.81
2023-04-25T06:34:38.569Z,23.91
2023-04-25T06:35:38.604Z,23.94
2023-04-25T06:36:38.639Z,24.00
2023-04-25T06:37:39.686Z,24.03
2023-04-25T06:38:39.718Z,23.93
2023-04-25T06:39:41.093Z,23.94
2023-04-25T06:40:39.817Z,23.96
2023-04-25T06:41:39.870Z,24.11
2023-04-25T06:42:39.900Z,24.17
2023-04-25T06:43:39.960Z,24.25
2023-04-25T06:44:38.957Z,24.24
2023-04-25T06:45:39.962Z,24.26
2023-04-25T06:46:40.107Z,24.34
2023-04-25T06:47:40.069Z,24.43
2023-04-25T06:48:40.100Z,24.36
2023-04-25T06:49:40.034Z,24.32
2023-04-25T06:50:40.064Z,24.42
2023-04-25T06:51:40.112Z,24.39
2023-04-25T06:52:40.092Z,24.42
2023-04-25T06:53:39.102Z,24.35
2023-04-25T06:54:39.109Z,24.25
2023-04-25T06:55:39.115Z,24.08
2023-04-25T06:56:39.171Z,24.15
2023-04-25T06:57:40.625Z,24.08
2023-04-25T06:58:39.282Z,24.04
2023-04-25T06:59:40.288Z,24.12
2023-04-25T07:00:40.366Z,24.00
2023-04-25T07:01:40.390Z,24.07
2023-04-25T07:02:40.528Z,24.07
2023-04-25T07:03:40.554Z,24.08
2023-04-25T07:04:39.701Z,23.87
2023-04-25T07:05:39.543Z,24.10
2023-04-25T07:06:40.568Z,24.11
2023-04-25T07:07:40.585Z,24.00
2023-04-25T07:08:39.611Z,24.01
2023-04-25T07:09:40.627Z,23.93
2023-04-25T07:10:39.617Z,23.94
2023-04-25T07:11:40.652Z,23.91
2023-04-25T07:12:40.668Z,23.74
2023-04-25T07:13:39.683Z,23.90
2023-04-25T07:14:40.843Z,23.97
2023-04-25T07:15:40.725Z,23.90
2023-04-25T07:16:40.771Z,23.93
2023-04-25T07:17:40.770Z,23.85
2023-04-25T07:18:39.733Z,23.99
2023-04-25T07:19:39.748Z,23.99
2023-04-25T07:20:40.849Z,23.81
2023-04-25T07:21:39.771Z,23.80
2023-04-25T07:22:40.796Z,23.69
2023-04-25T07:23:39.790Z,23.67
2023-04-25T07:24:40.784Z,23.72
2023-04-25T07:25:39.790Z,23.69
2023-04-25T07:26:39.800Z,23.66
2023-04-25T07:27:40.838Z,23.67
2023-04-25T07:28:40.880Z,23.67
2023-04-25T07:29:40.835Z,23.69
2023-04-25T07:30:40.845Z,23.66
2023-04-25T07:31:40.899Z,23.76
2023-04-25T07:32:40.921Z,23.70
2023-04-25T07:33:39.884Z,23.65
2023-04-25T07:34:39.900Z,23.65
2023-04-25T07:35:40.943Z,23.62
2023-04-25T07:36:40.938Z,23.52
2023-04-25T07:37:39.926Z,23.70
2023-04-25T07:38:40.934Z,23.63
2023-04-25T07:39:40.936Z,23.70
2023-04-25T07:40:43.958Z,23.79
2023-04-25T07:41:39.941Z,23.76
2023-04-25T07:42:39.937Z,23.69
2023-04-25T07:43:40.942Z,23.73
2023-04-25T07:44:40.916Z,23.72
2023-04-25T07:45:39.938Z,23.80
2023-04-25T07:46:40.946Z,23.72
2023-04-25T07:47:41.171Z,23.66
2023-04-25T07:48:40.904Z,23.40
2023-04-25T07:49:41.026Z,23.10
2023-04-25T07:50:39.892Z,22.45
2023-04-25T07:51:40.884Z,22.07
2023-04-25T07:52:41.166Z,22.17
2023-04-25T07:53:39.867Z,22.40
2023-04-25T07:54:40.855Z,22.66
2023-04-25T07:55:40.853Z,22.80
2023-04-25T07:56:51.453Z,23.01
2023-04-25T07:57:40.859Z,23.10
2023-04-25T07:58:39.861Z,22.87
2023-04-25T07:59:40.824Z,23.19
2023-04-25T08:00:40.922Z,23.29
2023-04-25T08:01:40.805Z,23.38
2023-04-25T08:02:40.878Z,23.44
2023-04-25T08:03:40.022Z,23.55
2023-04-25T08:04:41.042Z,23.49
2023-04-25T08:05:40.836Z,23.46
2023-04-25T08:06:40.901Z,23.59
2023-04-25T08:07:40.783Z,23.67
2023-04-25T08:08:40.796Z,23.76
2023-04-25T08:09:40.780Z,23.66
2023-04-25T08:10:40.754Z,23.91
2023-04-25T08:11:40.735Z,24.07
2023-04-25T08:12:40.757Z,24.14
2023-04-25T08:13:40.727Z,24.01
2023-04-25T08:14:39.864Z,23.94
2023-04-25T08:15:40.750Z,24.15
2023-04-25T08:16:40.702Z,24.15
2023-04-25T08:17:40.716Z,24.26
2023-04-25T08:18:40.691Z,24.29
2023-04-25T08:19:40.688Z,24.24
2023-04-25T08:20:39.687Z,24.34
2023-04-25T08:21:40.661Z,24.32
2023-04-25T08:22:40.660Z,24.28
2023-04-25T08:23:39.661Z,24.32
2023-04-25T08:24:39.825Z,24.36
2023-04-25T08:25:40.624Z,24.36
2023-04-25T08:26:40.643Z,24.32
2023-04-25T08:27:40.654Z,24.28
2023-04-25T08:28:39.641Z,24.15
2023-04-25T08:29:40.625Z,24.12
2023-04-25T08:30:40.629Z,24.36
2023-04-25T08:31:39.721Z,24.38
2023-04-25T08:32:40.647Z,24.40
2023-04-25T08:33:40.585Z,24.42
2023-04-25T08:34:40.589Z,24.43
2023-04-25T08:35:39.582Z,24.49
2023-04-25T08:36:40.269Z,24.50
2023-04-25T08:37:40.608Z,24.52
2023-04-25T08:38:39.556Z,24.59
2023-04-25T08:39:39.549Z,24.48
2023-04-25T08:40:39.872Z,24.49
2023-04-25T08:41:39.571Z,24.52
2023-04-25T08:42:40.663Z,24.52
2023-04-25T08:43:40.589Z,24.48
2023-04-25T08:44:40.614Z,24.55
2023-04-25T08:45:39.648Z,24.59
2023-04-25T08:46:39.655Z,24.49
2023-04-25T08:47:40.717Z,24.40
2023-04-25T08:48:40.677Z,24.21
2023-04-25T08:49:40.712Z,24.28
2023-04-25T08:50:39.730Z,23.97
2023-04-25T08:51:40.740Z,24.08
2023-04-25T08:52:40.847Z,24.10
2023-04-25T08:53:40.825Z,23.77
2023-04-25T08:54:41.675Z,23.24
2023-04-25T08:55:39.858Z,22.80
2023-04-25T08:56:40.965Z,22.45
2023-04-25T08:57:41.179Z,22.37
2023-04-25T08:58:39.928Z,22.18
2023-04-25T08:59:40.020Z,22.21
2023-04-25T09:00:40.987Z,22.48
2023-04-25T09:01:41.147Z,22.62
2023-04-25T09:02:41.258Z,22.80
2023-04-25T09:03:41.138Z,23.17
2023-04-25T09:04:41.164Z,23.18
2023-04-25T09:05:41.094Z,23.45
2023-04-25T09:06:41.123Z,23.53
2023-04-25T09:07:41.134Z,23.65
2023-04-25T09:08:40.144Z,23.74
2023-04-25T09:09:41.178Z,23.93
2023-04-25T09:10:40.216Z,23.90
2023-04-25T09:11:40.251Z,24.00
2023-04-25T09:12:40.321Z,24.01
2023-04-25T09:13:40.331Z,24.08
2023-04-25T09:14:41.373Z,24.03
2023-04-25T09:15:41.401Z,24.26
2023-04-25T09:16:40.508Z,24.38
2023-04-25T09:17:40.510Z,24.10
2023-04-25T09:19:42.201Z,24.04
2023-04-25T09:21:40.493Z,24.19
2023-04-25T09:22:41.528Z,24.19
2023-04-25T09:23:41.453Z,24.19
2023-04-25T09:24:41.447Z,24.26
2023-04-25T09:25:40.436Z,24.25
2023-04-25T09:26:40.447Z,24.34
2023-04-25T09:27:41.425Z,24.29
2023-04-25T09:28:41.453Z,24.34
2023-04-25T09:29:41.419Z,24.29
2023-04-25T09:30:40.408Z,24.39
2023-04-25T09:31:40.456Z,24.38
2023-04-25T09:32:41.478Z,24.39
2023-04-25T09:33:41.380Z,24.36
2023-04-25T09:34:40.418Z,24.42
2023-04-25T09:35:41.459Z,24.29
2023-04-25T09:36:41.489Z,24.44
2023-04-25T09:37:41.545Z,24.25
2023-04-25T09:38:41.607Z,24.35
2023-04-25T09:39:40.615Z,24.40
2023-04-25T09:40:40.644Z,24.43
2023-04-25T09:41:40.695Z,24.48
2023-04-25T09:42:41.719Z,24.52
2023-04-25T09:43:41.707Z,24.44
2023-04-25T09:44:41.749Z,24.64
2023-04-25T09:45:41.780Z,24.44
2023-04-25T09:46:41.980Z,24.18
2023-04-25T09:47:42.218Z,24.19
2023-04-25T09:48:40.877Z,24.08
2023-04-25T09:49:40.889Z,23.80
2023-04-25T09:50:41.916Z,23.88
2023-04-25T09:51:42.313Z,23.49
2023-04-25T09:52:42.540Z,23.46
2023-04-25T09:53:42.052Z,23.19
2023-04-25T09:54:42.659Z,23.32
2023-04-25T09:55:41.168Z,23.45
2023-04-25T09:56:41.535Z,23.50
2023-04-25T09:57:42.213Z,23.58
2023-04-25T09:58:42.300Z,23.62
2023-04-25T09:59:41.267Z,23.70
2023-04-25T10:00:43.006Z,23.85
2023-04-25T10:01:42.502Z,24.00
2023-04-25T10:02:42.451Z,23.97
2023-04-25T10:03:42.564Z,24.11
2023-04-25T10:04:41.470Z,24.03
2023-04-25T10:05:41.470Z,24.12
2023-04-25T10:06:41.854Z,24.08
2023-04-25T10:07:42.559Z,24.21
2023-04-25T10:08:41.718Z,24.22
2023-04-25T10:09:42.635Z,24.24
2023-04-25T10:10:42.663Z,24.28
2023-04-25T10:11:41.698Z,24.32
2023-04-25T10:12:41.833Z,24.39
2023-04-25T10:13:42.804Z,24.43
2023-04-25T10:14:43.509Z,24.38
2023-04-25T10:15:41.859Z,24.42
2023-04-25T10:16:42.926Z,24.36
2023-04-25T10:17:42.894Z,24.42
2023-04-25T10:18:43.582Z,24.49
2023-04-25T10:19:43.150Z,24.56
2023-04-25T10:20:42.133Z,24.66
2023-04-25T10:21:43.173Z,24.56
2023-04-25T10:22:43.881Z,24.50
2023-04-25T10:23:43.871Z,24.52
2023-04-25T10:24:43.231Z,24.55
2023-04-25T10:25:43.089Z,24.63
2023-04-25T10:26:43.157Z,24.59
2023-04-25T10:27:42.254Z,24.50
2023-04-25T10:28:43.650Z,24.48
2023-04-25T10:29:43.113Z,24.49
2023-04-25T10:30:43.011Z,24.49
2023-04-25T10:31:42.122Z,24.56
2023-04-25T10:32:42.531Z,24.49
2023-04-25T10:33:44.230Z,24.62
2023-04-25T10:34:44.802Z,24.67
2023-04-25T10:35:42.951Z,24.69
2023-04-25T10:36:41.936Z,24.52
2023-04-25T10:37:43.431Z,24.73
2023-04-25T10:38:42.090Z,24.62
2023-04-25T10:39:41.956Z,24.62
2023-04-25T10:40:42.520Z,24.83
2023-04-25T10:41:42.958Z,24.99
2023-04-25T10:42:43.398Z,24.97
2023-04-25T10:43:42.239Z,24.74
2023-04-25T10:44:42.926Z,24.55
2023-04-25T10:45:42.878Z,24.44
2023-04-25T10:46:42.999Z,24.43
2023-04-25T10:47:41.974Z,24.32
2023-04-25T10:48:42.949Z,24.26
2023-04-25T10:49:42.875Z,24.17
2023-04-25T10:50:42.849Z,24.11
2023-04-25T10:51:54.993Z,24.03
2023-04-25T10:52:42.837Z,24.04
2023-04-25T10:53:41.828Z,23.93
2023-04-25T10:54:42.822Z,23.93
2023-04-25T10:55:41.796Z,23.88
2023-04-25T10:56:42.809Z,23.83
2023-04-25T10:57:42.780Z,23.76
2023-04-25T10:58:42.771Z,23.70
2023-04-25T10:59:41.797Z,23.67
2023-04-25T11:00:48.197Z,23.69
2023-04-25T11:01:42.881Z,23.69
2023-04-25T11:02:42.874Z,23.62
2023-04-25T11:03:42.913Z,23.60
2023-04-25T11:04:43.102Z,23.56
2023-04-25T11:06:42.736Z,23.55
2023-04-25T11:07:43.221Z,23.55
2023-04-25T11:08:42.892Z,23.53
2023-04-25T11:09:41.968Z,23.49
2023-04-25T11:10:42.908Z,23.59
2023-04-25T11:11:42.938Z,23.52
2023-04-25T11:12:42.978Z,23.49
2023-04-25T11:13:43.038Z,23.46
2023-04-25T11:14:42.193Z,23.49
2023-04-25T11:15:43.090Z,23.44
2023-04-25T11:16:42.194Z,23.46
2023-04-25T11:17:43.243Z,23.53
2023-04-25T11:18:43.228Z,23.56
2023-04-25T11:19:43.287Z,23.60
2023-04-25T11:20:42.433Z,23.66
2023-04-25T11:21:43.400Z,23.69
2023-04-25T11:22:43.319Z,23.73
2023-04-25T11:23:42.330Z,23.66
2023-04-25T11:24:43.349Z,23.66
2023-04-25T11:25:42.397Z,23.67
2023-04-25T11:26:42.362Z,23.69
2023-04-25T11:27:43.393Z,23.69
2023-04-25T11:28:42.414Z,23.59
2023-04-25T11:29:42.474Z,23.38
2023-04-25T11:30:43.479Z,23.66
2023-04-25T11:31:43.534Z,23.60
2023-04-25T11:32:42.627Z,23.41
2023-04-25T11:33:42.649Z,23.37
2023-04-25T11:34:42.696Z,23.38
2023-04-25T11:35:43.766Z,23.38
2023-04-25T11:36:43.807Z,23.41
2023-04-25T11:37:43.815Z,23.42
2023-04-25T11:38:43.218Z,23.42
2023-04-25T11:39:43.883Z,23.44
2023-04-25T11:40:42.922Z,23.45
2023-04-25T11:41:44.747Z,23.38
2023-04-25T11:42:43.939Z,23.38
2023-04-25T11:43:43.928Z,23.40
2023-04-25T11:44:43.931Z,23.42
2023-04-25T11:45:43.981Z,23.50
2023-04-25T11:46:42.924Z,23.52
2023-04-25T11:47:43.025Z,23.41
2023-04-25T11:48:43.918Z,23.40
2023-04-25T11:49:43.899Z,23.38
2023-04-25T11:50:42.889Z,23.40
2023-04-25T11:51:42.936Z,23.40
2023-04-25T11:52:43.913Z,23.38
2023-04-25T11:53:43.913Z,23.41
2023-04-25T11:54:42.869Z,23.40
2023-04-25T11:55:42.882Z,23.40
2023-04-25T11:56:43.856Z,23.40
2023-04-25T11:57:43.853Z,23.40
2023-04-25T11:58:42.853Z,23.37
2023-04-25T11:59:43.835Z,23.38
2023-04-25T12:00:50.615Z,23.34
2023-04-25T12:01:43.833Z,23.35
2023-04-25T12:02:42.896Z,23.34
2023-04-25T12:03:42.945Z,23.32
2023-04-25T12:04:44.200Z,23.35
2023-04-25T12:05:43.979Z,23.34
2023-04-25T12:06:42.876Z,23.32
2023-04-25T12:07:43.773Z,23.31
2023-04-25T12:08:43.806Z,23.28
2023-04-25T12:09:43.765Z,23.29
2023-04-25T12:10:43.808Z,23.28
2023-04-25T12:11:43.757Z,23.25
2023-04-25T12:12:43.801Z,23.25
2023-04-25T12:13:42.767Z,23.24
2023-04-25T12:14:43.739Z,23.25
2023-04-25T12:15:42.861Z,23.24
2023-04-25T12:16:43.802Z,23.24
2023-04-25T12:17:43.819Z,23.24
2023-04-25T12:18:42.780Z,23.22
2023-04-25T12:19:42.704Z,23.18
2023-04-25T12:20:43.725Z,23.19
2023-04-25T12:21:56.517Z,23.18
2023-04-25T12:22:43.725Z,23.18
2023-04-25T12:23:43.706Z,23.17
2023-04-25T12:24:42.706Z,23.17
2023-04-25T12:25:43.693Z,23.17
2023-04-25T12:26:43.694Z,23.15
2023-04-25T12:27:43.703Z,23.15
2023-04-25T12:28:43.672Z,23.17
2023-04-25T12:30:43.683Z,22.58
2023-04-25T12:31:42.686Z,22.20
2023-04-25T12:32:43.666Z,22.16
2023-04-25T12:33:43.637Z,22.11
2023-04-25T12:34:42.636Z,22.20
2023-04-25T12:35:44.361Z,22.30
2023-04-25T12:36:42.630Z,22.42
2023-04-25T12:37:43.610Z,22.45
2023-04-25T12:38:42.662Z,22.52
2023-04-25T12:39:42.618Z,22.63
2023-04-25T12:40:43.653Z,22.70
2023-04-25T12:41:43.587Z,22.75
2023-04-25T12:42:42.574Z,22.79
2023-04-25T12:43:43.589Z,22.86
2023-04-25T12:44:43.569Z,22.94
2023-04-25T12:45:43.626Z,23.00
2023-04-25T12:46:42.719Z,23.03
2023-04-25T12:47:43.742Z,23.06
2023-04-25T12:48:42.777Z,23.08
2023-04-25T12:49:42.810Z,23.11
2023-04-25T12:50:42.857Z,23.14
2023-04-25T12:51:43.892Z,23.17
2023-04-25T12:52:43.955Z,23.19
2023-04-25T12:53:44.004Z,23.28
2023-04-25T12:54:43.037Z,23.17
2023-04-25T12:55:44.088Z,23.19
2023-04-25T12:56:43.174Z,23.21
2023-04-25T12:57:44.172Z,23.21
2023-04-25T12:58:43.234Z,23.25
2023-04-25T12:59:44.259Z,23.21
2023-04-25T13:00:43.329Z,23.19
2023-04-25T13:01:44.412Z,23.18
2023-04-25T13:02:44.516Z,23.22
2023-04-25T13:03:45.516Z,23.22
2023-04-25T13:04:44.495Z,23.22
2023-04-25T13:05:44.556Z,23.25
2023-04-25T13:06:43.581Z,23.24
2023-04-25T13:07:43.644Z,23.25
2023-04-25T13:08:43.690Z,23.24
2023-04-25T13:09:43.728Z,23.25
2023-04-25T13:10:43.765Z,23.24
2023-04-25T13:11:43.809Z,23.26
2023-04-25T13:12:43.887Z,23.24
2023-04-25T13:13:44.889Z,23.25
2023-04-25T13:14:44.066Z,23.25
2023-04-25T13:15:44.032Z,23.17
2023-04-25T13:16:44.051Z,23.22
2023-04-25T13:17:45.146Z,23.11
2023-04-25T13:18:44.088Z,23.15
2023-04-25T13:19:44.157Z,23.19
2023-04-25T13:20:44.157Z,23.18
2023-04-25T13:21:45.188Z,23.19
2023-04-25T13:22:45.232Z,23.21
2023-04-25T13:23:45.280Z,23.24
2023-04-25T13:24:45.314Z,23.24
2023-04-25T13:25:45.359Z,23.18
2023-04-25T13:26:44.430Z,23.21
2023-04-25T13:27:45.421Z,23.18
2023-04-25T13:28:45.050Z,23.18
2023-04-25T13:29:45.517Z,23.17
2023-04-25T13:30:45.549Z,23.17
2023-04-25T13:31:45.670Z,23.15
2023-04-25T13:32:44.633Z,23.18
2023-04-25T13:33:45.651Z,23.15
2023-04-25T13:34:45.696Z,23.15
2023-04-25T13:35:44.737Z,23.15
2023-04-25T13:36:44.781Z,23.19
2023-04-25T13:37:44.822Z,23.19
2023-04-25T13:38:45.114Z,23.24
2023-04-25T13:39:45.902Z,23.18
2023-04-25T13:40:45.943Z,23.18
2023-04-25T13:41:45.975Z,23.15
2023-04-25T13:42:46.029Z,23.14
2023-04-25T13:43:45.043Z,23.15
2023-04-25T13:44:46.172Z,23.14
2023-04-25T13:45:46.140Z,23.18
2023-04-25T13:46:47.713Z,23.15
2023-04-25T13:47:46.197Z,23.11
2023-04-25T13:48:46.163Z,23.13
2023-04-25T13:49:45.147Z,23.14
2023-04-25T13:50:46.153Z,23.14
2023-04-25T13:51:46.171Z,23.15
2023-04-25T13:52:46.129Z,23.17
2023-04-25T13:53:45.128Z,23.15
2023-04-25T13:54:45.109Z,23.19
2023-04-25T13:55:45.101Z,23.18
2023-04-25T13:56:45.106Z,23.18
2023-04-25T13:57:46.085Z,23.15
2023-04-25T13:58:46.090Z,23.18
2023-04-25T13:59:45.080Z,23.13
2023-04-25T14:00:46.092Z,23.14
2023-04-25T14:01:46.189Z,23.13
2023-04-25T14:02:47.630Z,23.13
2023-04-25T14:03:45.083Z,23.13
2023-04-25T14:04:45.123Z,23.13
2023-04-25T14:05:46.043Z,23.11
2023-04-25T14:06:46.016Z,23.15
2023-04-25T14:07:46.019Z,23.15
2023-04-25T14:08:45.016Z,23.13
2023-04-25T14:09:45.005Z,23.13
2023-04-25T14:10:45.998Z,23.14
2023-04-25T14:11:46.009Z,23.11
2023-04-25T14:12:46.047Z,23.08
2023-04-25T14:13:45.969Z,23.07
2023-04-25T14:14:44.966Z,23.03
2023-04-25T14:15:44.983Z,23.11
2023-04-25T14:16:45.993Z,23.08
2023-04-25T14:17:44.958Z,23.07
2023-04-25T14:18:44.935Z,23.06
2023-04-25T14:19:44.934Z,23.10
2023-04-25T14:20:44.942Z,23.08
2023-04-25T14:21:45.921Z,23.08
2023-04-25T14:22:45.929Z,23.11
2023-04-25T14:23:45.912Z,23.14
2023-04-25T14:24:45.945Z,23.10
2023-04-25T14:25:46.015Z,23.08
2023-04-25T14:26:46.032Z,23.06
2023-04-25T14:27:46.123Z,23.06
2023-04-25T14:28:45.153Z,23.07
2023-04-25T14:29:45.217Z,23.07
2023-04-25T14:30:45.249Z,23.06
2023-04-25T14:31:46.479Z,23.07
2023-04-25T14:32:46.486Z,23.06
2023-04-25T14:33:45.407Z,23.10
2023-04-25T14:34:46.480Z,23.07
2023-04-25T14:35:45.522Z,23.03
2023-04-25T14:36:45.580Z,23.08
2023-04-25T14:37:46.638Z,23.03
2023-04-25T14:38:45.680Z,23.04
2023-04-25T14:39:46.470Z,23.04
2023-04-25T14:40:46.789Z,23.04
2023-04-25T14:41:46.840Z,22.99
2023-04-25T14:42:46.899Z,23.01
2023-04-25T14:43:46.946Z,23.01
2023-04-25T14:44:46.011Z,23.03
2023-04-25T14:45:46.063Z,23.01
2023-04-25T14:46:47.143Z,23.03
2023-04-25T14:47:46.228Z,23.01
2023-04-25T14:48:46.341Z,23.00
2023-04-25T14:49:47.283Z,23.00
2023-04-25T14:50:46.310Z,23.01
2023-04-25T14:51:47.722Z,23.03
2023-04-25T14:52:46.416Z,23.03
2023-04-25T14:53:47.469Z,23.01
2023-04-25T14:54:46.521Z,23.01
2023-04-25T14:55:46.576Z,23.00
2023-04-25T14:56:46.627Z,23.00
2023-04-25T14:57:47.669Z,23.01
2023-04-25T14:58:46.741Z,23.01
2023-04-25T14:59:47.793Z,23.01
2023-04-25T15:00:47.891Z,23.00
2023-04-25T15:01:47.870Z,22.99
2023-04-25T15:02:48.131Z,22.97
2023-04-25T15:03:48.234Z,22.99
2023-04-25T15:04:47.121Z,23.00
2023-04-25T15:05:48.119Z,23.00
2023-04-25T15:06:47.145Z,22.99
2023-04-25T15:07:48.202Z,22.99
2023-04-25T15:08:48.254Z,22.96
2023-04-25T15:09:47.353Z,22.97
2023-04-25T15:10:48.359Z,22.97
2023-04-25T15:11:47.412Z,22.97
2023-04-25T15:12:47.827Z,22.94
2023-04-25T15:13:47.472Z,22.96
2023-04-25T15:14:48.528Z,22.96
2023-04-25T15:15:48.565Z,22.94
2023-04-25T15:16:48.664Z,22.97
2023-04-25T15:17:47.639Z,22.93
2023-04-25T15:18:48.639Z,22.93
2023-04-25T15:19:47.730Z,22.93
2023-04-25T15:20:48.745Z,22.91
2023-04-25T15:21:47.787Z,22.91
2023-04-25T15:22:48.818Z,22.93
2023-04-25T15:23:49.043Z,22.93
2023-04-25T15:24:48.885Z,22.91
2023-04-25T15:25:47.935Z,22.89
2023-04-25T15:26:48.973Z,22.91
2023-04-25T15:27:47.986Z,22.90
2023-04-25T15:28:48.021Z,22.90
2023-04-25T15:29:49.071Z,22.89
2023-04-25T15:31:00.381Z,22.87
2023-04-25T15:31:48.140Z,22.89
2023-04-25T15:32:48.162Z,22.87
2023-04-25T15:33:48.052Z,22.86
2023-04-25T15:34:49.330Z,22.85
2023-04-25T15:35:48.206Z,22.82
2023-04-25T15:36:49.041Z,22.83
2023-04-25T15:37:48.218Z,22.80
2023-04-25T15:38:49.045Z,22.80
2023-04-25T15:39:49.060Z,22.82
2023-04-25T15:40:48.042Z,22.82
2023-04-25T15:41:49.115Z,22.80
2023-04-25T15:42:48.211Z,22.82